sensor_id;sensor_type;location;lat;lon;timestamp;P1;durP1;ratioP1;P2;durP2;ratioP2
15342;SDS011;7771;48.478;8.936;2024-02-23T00:00:56;0.33;;;0.33;;
15342;SDS011;7771;48.478;8.936;2024-02-23T00:03:23;0.90;;;0.40;;
15342;SDS011;7771;48.478;8.936;2024-02-23T00:05:51;0.30;;;0.30;;
15342;SDS011;7771;48.478;8.936;2024-02-23T00:08:20;0.43;;;0.40;;
15342;SDS011;7771;48.478;8.936;2024-02-23T00:10:46;0.30;;;0.30;;
15342;SDS011;7771;48.478;8.936;2024-02-23T00:13:15;0.40;;;0.40;;
15342;SDS011;7771;48.478;8.936;2024-02-23T00:15:43;0.47;;;0.40;;
15342;SDS011;7771;48.478;8.936;2024-02-23T00:18:11;1.30;;;0.30;;
15342;SDS011;7771;48.478;8.936;2024-02-23T00:20:38;0.77;;;0.40;;
15342;SDS011;7771;48.478;8.936;2024-02-23T00:23:05;1.97;;;0.53;;
15342;SDS011;7771;48.478;8.936;2024-02-23T00:25:33;0.40;;;0.40;;
15342;SDS011;7771;48.478;8.936;2024-02-23T00:28:00;0.97;;;0.50;;
15342;SDS011;7771;48.478;8.936;2024-02-23T00:30:27;1.57;;;0.50;;
15342;SDS011;7771;48.478;8.936;2024-02-23T00:32:55;1.50;;;0.53;;
15342;SDS011;7771;48.478;8.936;2024-02-23T00:35:23;1.37;;;0.37;;
15342;SDS011;7771;48.478;8.936;2024-02-23T00:37:49;0.87;;;0.53;;
15342;SDS011;7771;48.478;8.936;2024-02-23T00:40:18;2.83;;;0.80;;
15342;SDS011;7771;48.478;8.936;2024-02-23T00:42:45;0.97;;;0.50;;
15342;SDS011;7771;48.478;8.936;2024-02-23T00:45:12;3.03;;;0.60;;
15342;SDS011;7771;48.478;8.936;2024-02-23T00:47:39;1.80;;;0.40;;
15342;SDS011;7771;48.478;8.936;2024-02-23T00:50:06;1.80;;;0.63;;
15342;SDS011;7771;48.478;8.936;2024-02-23T00:52:34;1.10;;;0.60;;
15342;SDS011;7771;48.478;8.936;2024-02-23T00:55:02;2.23;;;0.50;;
15342;SDS011;7771;48.478;8.936;2024-02-23T00:57:28;1.97;;;0.90;;
15342;SDS011;7771;48.478;8.936;2024-02-23T00:59:56;5.60;;;0.60;;
15342;SDS011;7771;48.478;8.936;2024-02-23T01:02:22;1.40;;;0.50;;
15342;SDS011;7771;48.478;8.936;2024-02-23T01:04:49;0.70;;;0.40;;
15342;SDS011;7771;48.478;8.936;2024-02-23T01:07:15;0.93;;;0.60;;
15342;SDS011;7771;48.478;8.936;2024-02-23T01:09:42;1.87;;;0.70;;
15342;SDS011;7771;48.478;8.936;2024-02-23T01:12:09;2.10;;;0.57;;
15342;SDS011;7771;48.478;8.936;2024-02-23T01:14:36;2.73;;;0.60;;
15342;SDS011;7771;48.478;8.936;2024-02-23T01:17:03;1.27;;;0.40;;
15342;SDS011;7771;48.478;8.936;2024-02-23T01:19:29;0.87;;;0.60;;
15342;SDS011;7771;48.478;8.936;2024-02-23T01:21:56;0.87;;;0.47;;
15342;SDS011;7771;48.478;8.936;2024-02-23T01:24:26;0.90;;;0.50;;
15342;SDS011;7771;48.478;8.936;2024-02-23T01:26:53;1.27;;;0.60;;
15342;SDS011;7771;48.478;8.936;2024-02-23T01:29:19;1.40;;;0.60;;
15342;SDS011;7771;48.478;8.936;2024-02-23T01:31:47;0.80;;;0.40;;
15342;SDS011;7771;48.478;8.936;2024-02-23T01:34:13;0.57;;;0.57;;
15342;SDS011;7771;48.478;8.936;2024-02-23T01:36:41;1.40;;;0.50;;
15342;SDS011;7771;48.478;8.936;2024-02-23T01:39:07;1.27;;;0.60;;
15342;SDS011;7771;48.478;8.936;2024-02-23T01:41:35;0.30;;;0.30;;
15342;SDS011;7771;48.478;8.936;2024-02-23T01:44:01;0.77;;;0.40;;
15342;SDS011;7771;48.478;8.936;2024-02-23T01:46:29;0.60;;;0.40;;
15342;SDS011;7771;48.478;8.936;2024-02-23T01:48:56;0.77;;;0.53;;
15342;SDS011;7771;48.478;8.936;2024-02-23T01:51:24;0.90;;;0.47;;
15342;SDS011;7771;48.478;8.936;2024-02-23T01:53:51;0.47;;;0.40;;
15342;SDS011;7771;48.478;8.936;2024-02-23T01:56:18;0.30;;;0.30;;
15342;SDS011;7771;48.478;8.936;2024-02-23T01:58:46;0.43;;;0.43;;
15342;SDS011;7771;48.478;8.936;2024-02-23T02:01:12;1.70;;;0.40;;
15342;SDS011;7771;48.478;8.936;2024-02-23T02:03:39;0.37;;;0.37;;
15342;SDS011;7771;48.478;8.936;2024-02-23T02:06:06;1.30;;;0.50;;
15342;SDS011;7771;48.478;8.936;2024-02-23T02:08:33;0.30;;;0.30;;
15342;SDS011;7771;48.478;8.936;2024-02-23T02:11:02;0.67;;;0.53;;
15342;SDS011;7771;48.478;8.936;2024-02-23T02:13:29;0.30;;;0.30;;
15342;SDS011;7771;48.478;8.936;2024-02-23T02:15:59;0.93;;;0.60;;
15342;SDS011;7771;48.478;8.936;2024-02-23T02:18:26;0.60;;;0.40;;
15342;SDS011;7771;48.478;8.936;2024-02-23T02:20:54;0.70;;;0.60;;
15342;SDS011;7771;48.478;8.936;2024-02-23T02:23:22;0.40;;;0.40;;
15342;SDS011;7771;48.478;8.936;2024-02-23T02:25:53;0.70;;;0.53;;
15342;SDS011;7771;48.478;8.936;2024-02-23T02:28:18;1.17;;;0.93;;
15342;SDS011;7771;48.478;8.936;2024-02-23T02:30:45;0.47;;;0.47;;
15342;SDS011;7771;48.478;8.936;2024-02-23T02:33:11;0.40;;;0.40;;
15342;SDS011;7771;48.478;8.936;2024-02-23T02:35:38;0.53;;;0.40;;
15342;SDS011;7771;48.478;8.936;2024-02-23T02:38:05;0.30;;;0.30;;
15342;SDS011;7771;48.478;8.936;2024-02-23T02:45:39;0.50;;;0.50;;
15342;SDS011;7771;48.478;8.936;2024-02-23T02:48:05;0.50;;;0.50;;
15342;SDS011;7771;48.478;8.936;2024-02-23T02:50:32;1.70;;;0.50;;
15342;SDS011;7771;48.478;8.936;2024-02-23T02:52:59;1.27;;;0.60;;
15342;SDS011;7771;48.478;8.936;2024-02-23T02:55:26;0.37;;;0.37;;
15342;SDS011;7771;48.478;8.936;2024-02-23T02:57:53;0.40;;;0.40;;
15342;SDS011;7771;48.478;8.936;2024-02-23T03:00:21;0.43;;;0.40;;
15342;SDS011;7771;48.478;8.936;2024-02-23T03:02:48;1.53;;;0.30;;
15342;SDS011;7771;48.478;8.936;2024-02-23T03:05:15;0.60;;;0.60;;
15342;SDS011;7771;48.478;8.936;2024-02-23T03:07:41;0.43;;;0.43;;
15342;SDS011;7771;48.478;8.936;2024-02-23T03:10:08;0.40;;;0.30;;
15342;SDS011;7771;48.478;8.936;2024-02-23T03:12:35;0.47;;;0.40;;
15342;SDS011;7771;48.478;8.936;2024-02-23T03:15:02;0.30;;;0.30;;
15342;SDS011;7771;48.478;8.936;2024-02-23T03:17:29;0.87;;;0.73;;
15342;SDS011;7771;48.478;8.936;2024-02-23T03:19:56;1.70;;;0.60;;
15342;SDS011;7771;48.478;8.936;2024-02-23T03:22:23;0.80;;;0.70;;
15342;SDS011;7771;48.478;8.936;2024-02-23T03:24:51;0.40;;;0.40;;
15342;SDS011;7771;48.478;8.936;2024-02-23T03:27:18;0.90;;;0.80;;
15342;SDS011;7771;48.478;8.936;2024-02-23T03:29:44;0.67;;;0.60;;
15342;SDS011;7771;48.478;8.936;2024-02-23T03:32:11;1.40;;;0.77;;
15342;SDS011;7771;48.478;8.936;2024-02-23T03:34:38;1.93;;;0.73;;
15342;SDS011;7771;48.478;8.936;2024-02-23T03:37:05;1.40;;;0.50;;
15342;SDS011;7771;48.478;8.936;2024-02-23T03:39:32;0.70;;;0.50;;
15342;SDS011;7771;48.478;8.936;2024-02-23T03:41:58;3.67;;;0.80;;
15342;SDS011;7771;48.478;8.936;2024-02-23T03:44:25;0.47;;;0.47;;
15342;SDS011;7771;48.478;8.936;2024-02-23T03:46:52;0.60;;;0.60;;
15342;SDS011;7771;48.478;8.936;2024-02-23T03:49:19;1.43;;;0.50;;
15342;SDS011;7771;48.478;8.936;2024-02-23T03:51:47;0.40;;;0.40;;
15342;SDS011;7771;48.478;8.936;2024-02-23T03:54:13;3.47;;;0.63;;
15342;SDS011;7771;48.478;8.936;2024-02-23T03:56:40;1.57;;;0.50;;
15342;SDS011;7771;48.478;8.936;2024-02-23T03:59:07;3.07;;;1.00;;
15342;SDS011;7771;48.478;8.936;2024-02-23T04:01:37;1.43;;;0.43;;
15342;SDS011;7771;48.478;8.936;2024-02-23T04:04:03;2.17;;;0.80;;
15342;SDS011;7771;48.478;8.936;2024-02-23T04:06:30;0.67;;;0.60;;
15342;SDS011;7771;48.478;8.936;2024-02-23T04:08:56;1.60;;;0.67;;
15342;SDS011;7771;48.478;8.936;2024-02-23T04:11:23;1.73;;;0.63;;
15342;SDS011;7771;48.478;8.936;2024-02-23T04:13:50;1.23;;;0.50;;
15342;SDS011;7771;48.478;8.936;2024-02-23T04:16:17;1.63;;;0.70;;
15342;SDS011;7771;48.478;8.936;2024-02-23T04:18:45;2.20;;;0.80;;
15342;SDS011;7771;48.478;8.936;2024-02-23T04:21:11;1.13;;;0.60;;
15342;SDS011;7771;48.478;8.936;2024-02-23T04:23:40;0.70;;;0.70;;
15342;SDS011;7771;48.478;8.936;2024-02-23T04:26:08;1.13;;;0.53;;
15342;SDS011;7771;48.478;8.936;2024-02-23T04:28:37;1.90;;;0.80;;
15342;SDS011;7771;48.478;8.936;2024-02-23T04:31:05;2.13;;;0.83;;
15342;SDS011;7771;48.478;8.936;2024-02-23T04:33:32;1.10;;;0.90;;
15342;SDS011;7771;48.478;8.936;2024-02-23T04:35:59;0.40;;;0.40;;
15342;SDS011;7771;48.478;8.936;2024-02-23T04:38:26;0.87;;;0.77;;
15342;SDS011;7771;48.478;8.936;2024-02-23T04:40:52;0.80;;;0.60;;
15342;SDS011;7771;48.478;8.936;2024-02-23T04:43:20;0.63;;;0.40;;
15342;SDS011;7771;48.478;8.936;2024-02-23T04:45:47;0.83;;;0.63;;
15342;SDS011;7771;48.478;8.936;2024-02-23T04:48:14;1.90;;;0.80;;
15342;SDS011;7771;48.478;8.936;2024-02-23T04:50:42;0.60;;;0.60;;
15342;SDS011;7771;48.478;8.936;2024-02-23T04:53:10;2.43;;;0.80;;
15342;SDS011;7771;48.478;8.936;2024-02-23T04:55:36;1.43;;;0.80;;
15342;SDS011;7771;48.478;8.936;2024-02-23T04:58:04;2.47;;;0.70;;
15342;SDS011;7771;48.478;8.936;2024-02-23T05:00:32;3.83;;;1.10;;
15342;SDS011;7771;48.478;8.936;2024-02-23T05:02:59;1.87;;;1.00;;
15342;SDS011;7771;48.478;8.936;2024-02-23T05:05:25;1.60;;;0.90;;
15342;SDS011;7771;48.478;8.936;2024-02-23T05:07:52;1.13;;;1.03;;
15342;SDS011;7771;48.478;8.936;2024-02-23T05:10:19;2.90;;;0.83;;
15342;SDS011;7771;48.478;8.936;2024-02-23T05:12:46;2.53;;;0.90;;
15342;SDS011;7771;48.478;8.936;2024-02-23T05:15:13;2.77;;;0.90;;
15342;SDS011;7771;48.478;8.936;2024-02-23T05:17:40;2.27;;;0.77;;
15342;SDS011;7771;48.478;8.936;2024-02-23T05:20:07;0.80;;;0.70;;
15342;SDS011;7771;48.478;8.936;2024-02-23T05:22:34;2.73;;;1.47;;
15342;SDS011;7771;48.478;8.936;2024-02-23T05:25:03;2.97;;;2.13;;
15342;SDS011;7771;48.478;8.936;2024-02-23T05:27:29;6.37;;;1.40;;
15342;SDS011;7771;48.478;8.936;2024-02-23T05:29:56;2.03;;;1.17;;
15342;SDS011;7771;48.478;8.936;2024-02-23T05:32:23;0.80;;;0.80;;
15342;SDS011;7771;48.478;8.936;2024-02-23T05:34:49;0.93;;;0.90;;
15342;SDS011;7771;48.478;8.936;2024-02-23T05:37:16;2.37;;;0.90;;
15342;SDS011;7771;48.478;8.936;2024-02-23T05:39:44;2.00;;;0.90;;
15342;SDS011;7771;48.478;8.936;2024-02-23T05:42:11;2.43;;;1.90;;
15342;SDS011;7771;48.478;8.936;2024-02-23T05:44:39;2.30;;;1.73;;
15342;SDS011;7771;48.478;8.936;2024-02-23T05:47:06;1.97;;;1.60;;
15342;SDS011;7771;48.478;8.936;2024-02-23T05:49:33;2.30;;;1.20;;
15342;SDS011;7771;48.478;8.936;2024-02-23T05:52:00;1.30;;;0.90;;
15342;SDS011;7771;48.478;8.936;2024-02-23T05:54:27;1.57;;;1.47;;
15342;SDS011;7771;48.478;8.936;2024-02-23T05:56:54;2.47;;;0.90;;
15342;SDS011;7771;48.478;8.936;2024-02-23T05:59:21;1.50;;;0.90;;
15342;SDS011;7771;48.478;8.936;2024-02-23T06:01:48;2.43;;;0.80;;
15342;SDS011;7771;48.478;8.936;2024-02-23T06:04:14;2.57;;;1.10;;
15342;SDS011;7771;48.478;8.936;2024-02-23T06:06:41;2.60;;;1.00;;
15342;SDS011;7771;48.478;8.936;2024-02-23T06:09:09;3.13;;;1.10;;
15342;SDS011;7771;48.478;8.936;2024-02-23T06:11:36;2.13;;;1.07;;
15342;SDS011;7771;48.478;8.936;2024-02-23T06:14:02;2.70;;;1.10;;
15342;SDS011;7771;48.478;8.936;2024-02-23T06:16:29;1.57;;;1.20;;
15342;SDS011;7771;48.478;8.936;2024-02-23T06:18:56;3.53;;;1.50;;
15342;SDS011;7771;48.478;8.936;2024-02-23T06:21:23;3.37;;;1.20;;
15342;SDS011;7771;48.478;8.936;2024-02-23T06:23:50;1.80;;;1.30;;
15342;SDS011;7771;48.478;8.936;2024-02-23T06:26:17;3.53;;;1.13;;
15342;SDS011;7771;48.478;8.936;2024-02-23T06:28:44;4.20;;;1.30;;
15342;SDS011;7771;48.478;8.936;2024-02-23T06:31:11;2.13;;;1.30;;
15342;SDS011;7771;48.478;8.936;2024-02-23T06:33:38;3.47;;;1.40;;
15342;SDS011;7771;48.478;8.936;2024-02-23T06:36:05;2.87;;;1.60;;
15342;SDS011;7771;48.478;8.936;2024-02-23T06:38:33;5.80;;;1.53;;
15342;SDS011;7771;48.478;8.936;2024-02-23T06:41:01;3.27;;;1.87;;
15342;SDS011;7771;48.478;8.936;2024-02-23T06:43:29;2.77;;;1.60;;
15342;SDS011;7771;48.478;8.936;2024-02-23T06:45:55;2.37;;;1.40;;
15342;SDS011;7771;48.478;8.936;2024-02-23T06:48:23;3.03;;;1.37;;
15342;SDS011;7771;48.478;8.936;2024-02-23T06:50:48;1.47;;;1.27;;
15342;SDS011;7771;48.478;8.936;2024-02-23T06:53:15;3.70;;;1.40;;
15342;SDS011;7771;48.478;8.936;2024-02-23T06:55:43;2.67;;;1.73;;
15342;SDS011;7771;48.478;8.936;2024-02-23T06:58:09;3.23;;;1.50;;
15342;SDS011;7771;48.478;8.936;2024-02-23T07:00:38;2.70;;;1.67;;
15342;SDS011;7771;48.478;8.936;2024-02-23T07:03:06;1.53;;;1.30;;
15342;SDS011;7771;48.478;8.936;2024-02-23T07:05:34;3.07;;;1.80;;
15342;SDS011;7771;48.478;8.936;2024-02-23T07:08:01;2.33;;;1.50;;
15342;SDS011;7771;48.478;8.936;2024-02-23T07:10:28;1.47;;;1.37;;
15342;SDS011;7771;48.478;8.936;2024-02-23T07:12:54;1.53;;;1.33;;
15342;SDS011;7771;48.478;8.936;2024-02-23T07:15:21;1.63;;;1.30;;
15342;SDS011;7771;48.478;8.936;2024-02-23T07:17:48;5.87;;;1.93;;
15342;SDS011;7771;48.478;8.936;2024-02-23T07:20:14;3.23;;;1.60;;
15342;SDS011;7771;48.478;8.936;2024-02-23T07:22:43;5.17;;;1.97;;
15342;SDS011;7771;48.478;8.936;2024-02-23T07:25:15;4.13;;;1.77;;
15342;SDS011;7771;48.478;8.936;2024-02-23T07:27:42;3.60;;;2.00;;
15342;SDS011;7771;48.478;8.936;2024-02-23T07:30:10;2.23;;;1.57;;
15342;SDS011;7771;48.478;8.936;2024-02-23T07:32:37;1.77;;;1.20;;
15342;SDS011;7771;48.478;8.936;2024-02-23T07:35:04;3.73;;;2.23;;
15342;SDS011;7771;48.478;8.936;2024-02-23T07:37:32;2.07;;;1.50;;
15342;SDS011;7771;48.478;8.936;2024-02-23T07:39:58;3.47;;;1.37;;
15342;SDS011;7771;48.478;8.936;2024-02-23T07:42:27;2.03;;;1.10;;
15342;SDS011;7771;48.478;8.936;2024-02-23T07:44:53;2.47;;;1.10;;
15342;SDS011;7771;48.478;8.936;2024-02-23T07:47:20;3.00;;;1.43;;
15342;SDS011;7771;48.478;8.936;2024-02-23T07:49:47;2.70;;;1.33;;
15342;SDS011;7771;48.478;8.936;2024-02-23T07:52:14;2.30;;;1.10;;
15342;SDS011;7771;48.478;8.936;2024-02-23T07:54:42;3.83;;;1.30;;
15342;SDS011;7771;48.478;8.936;2024-02-23T07:57:09;3.67;;;1.40;;
15342;SDS011;7771;48.478;8.936;2024-02-23T07:59:36;2.87;;;1.30;;
15342;SDS011;7771;48.478;8.936;2024-02-23T08:02:03;1.67;;;1.20;;
15342;SDS011;7771;48.478;8.936;2024-02-23T08:04:29;2.17;;;0.97;;
15342;SDS011;7771;48.478;8.936;2024-02-23T08:06:57;3.73;;;1.30;;
15342;SDS011;7771;48.478;8.936;2024-02-23T08:09:25;2.07;;;1.30;;
15342;SDS011;7771;48.478;8.936;2024-02-23T08:11:53;1.10;;;1.00;;
15342;SDS011;7771;48.478;8.936;2024-02-23T08:14:19;5.50;;;2.70;;
15342;SDS011;7771;48.478;8.936;2024-02-23T08:16:47;3.30;;;1.43;;
15342;SDS011;7771;48.478;8.936;2024-02-23T08:19:14;2.03;;;1.07;;
15342;SDS011;7771;48.478;8.936;2024-02-23T08:21:41;1.97;;;1.33;;
15342;SDS011;7771;48.478;8.936;2024-02-23T08:24:08;2.60;;;1.10;;
15342;SDS011;7771;48.478;8.936;2024-02-23T08:26:34;6.50;;;1.20;;
15342;SDS011;7771;48.478;8.936;2024-02-23T08:29:01;2.97;;;1.30;;
15342;SDS011;7771;48.478;8.936;2024-02-23T08:31:28;1.77;;;1.40;;
15342;SDS011;7771;48.478;8.936;2024-02-23T08:33:55;3.90;;;1.50;;
15342;SDS011;7771;48.478;8.936;2024-02-23T08:36:22;5.40;;;1.93;;
15342;SDS011;7771;48.478;8.936;2024-02-23T08:38:48;3.43;;;1.63;;
15342;SDS011;7771;48.478;8.936;2024-02-23T08:41:15;7.17;;;1.83;;
15342;SDS011;7771;48.478;8.936;2024-02-23T08:43:42;3.37;;;1.80;;
15342;SDS011;7771;48.478;8.936;2024-02-23T08:46:09;9.77;;;3.73;;
15342;SDS011;7771;48.478;8.936;2024-02-23T08:48:36;10.93;;;3.73;;
15342;SDS011;7771;48.478;8.936;2024-02-23T08:51:03;5.30;;;2.07;;
15342;SDS011;7771;48.478;8.936;2024-02-23T08:53:31;3.20;;;1.87;;
15342;SDS011;7771;48.478;8.936;2024-02-23T08:55:58;3.57;;;1.50;;
15342;SDS011;7771;48.478;8.936;2024-02-23T08:58:24;2.27;;;1.33;;
15342;SDS011;7771;48.478;8.936;2024-02-23T09:00:52;3.50;;;1.43;;
15342;SDS011;7771;48.478;8.936;2024-02-23T09:03:19;3.40;;;1.30;;
15342;SDS011;7771;48.478;8.936;2024-02-23T09:05:46;2.53;;;1.50;;
15342;SDS011;7771;48.478;8.936;2024-02-23T09:08:14;2.23;;;1.27;;
15342;SDS011;7771;48.478;8.936;2024-02-23T09:10:41;2.70;;;1.40;;
15342;SDS011;7771;48.478;8.936;2024-02-23T09:13:10;2.20;;;1.60;;
15342;SDS011;7771;48.478;8.936;2024-02-23T09:15:37;4.07;;;1.70;;
15342;SDS011;7771;48.478;8.936;2024-02-23T09:18:05;7.23;;;1.80;;
15342;SDS011;7771;48.478;8.936;2024-02-23T09:20:31;6.33;;;2.00;;
15342;SDS011;7771;48.478;8.936;2024-02-23T09:22:59;6.10;;;1.90;;
15342;SDS011;7771;48.478;8.936;2024-02-23T09:25:25;3.57;;;1.47;;
15342;SDS011;7771;48.478;8.936;2024-02-23T09:27:56;3.83;;;1.60;;
15342;SDS011;7771;48.478;8.936;2024-02-23T09:30:19;4.03;;;2.07;;
15342;SDS011;7771;48.478;8.936;2024-02-23T09:32:47;7.90;;;2.13;;
15342;SDS011;7771;48.478;8.936;2024-02-23T09:35:13;2.63;;;1.57;;
15342;SDS011;7771;48.478;8.936;2024-02-23T09:37:41;4.37;;;1.77;;
15342;SDS011;7771;48.478;8.936;2024-02-23T09:40:08;3.13;;;1.37;;
15342;SDS011;7771;48.478;8.936;2024-02-23T09:42:36;4.83;;;1.40;;
15342;SDS011;7771;48.478;8.936;2024-02-23T09:45:03;2.43;;;1.50;;
15342;SDS011;7771;48.478;8.936;2024-02-23T09:47:31;5.43;;;1.50;;
15342;SDS011;7771;48.478;8.936;2024-02-23T09:49:59;5.37;;;1.40;;
15342;SDS011;7771;48.478;8.936;2024-02-23T09:52:26;3.57;;;1.83;;
15342;SDS011;7771;48.478;8.936;2024-02-23T09:54:53;4.73;;;2.20;;
15342;SDS011;7771;48.478;8.936;2024-02-23T09:57:20;2.37;;;1.43;;
15342;SDS011;7771;48.478;8.936;2024-02-23T09:59:48;6.40;;;1.87;;
15342;SDS011;7771;48.478;8.936;2024-02-23T10:02:15;5.13;;;1.93;;
15342;SDS011;7771;48.478;8.936;2024-02-23T10:04:41;5.53;;;1.70;;
15342;SDS011;7771;48.478;8.936;2024-02-23T10:07:08;4.40;;;1.53;;
15342;SDS011;7771;48.478;8.936;2024-02-23T10:09:35;3.97;;;1.30;;
15342;SDS011;7771;48.478;8.936;2024-02-23T10:12:02;3.80;;;1.10;;
15342;SDS011;7771;48.478;8.936;2024-02-23T10:14:28;5.57;;;1.00;;
15342;SDS011;7771;48.478;8.936;2024-02-23T10:16:57;7.90;;;1.50;;
15342;SDS011;7771;48.478;8.936;2024-02-23T10:19:23;5.10;;;1.13;;
15342;SDS011;7771;48.478;8.936;2024-02-23T10:21:51;4.40;;;1.33;;
15342;SDS011;7771;48.478;8.936;2024-02-23T10:24:18;3.07;;;1.10;;
15342;SDS011;7771;48.478;8.936;2024-02-23T10:26:44;3.20;;;1.17;;
15342;SDS011;7771;48.478;8.936;2024-02-23T10:29:12;2.90;;;1.27;;
15342;SDS011;7771;48.478;8.936;2024-02-23T10:31:40;4.83;;;1.27;;
15342;SDS011;7771;48.478;8.936;2024-02-23T10:34:07;5.30;;;1.20;;
15342;SDS011;7771;48.478;8.936;2024-02-23T10:36:37;5.33;;;1.40;;
15342;SDS011;7771;48.478;8.936;2024-02-23T10:39:04;3.47;;;1.10;;
15342;SDS011;7771;48.478;8.936;2024-02-23T10:41:33;3.23;;;1.10;;
15342;SDS011;7771;48.478;8.936;2024-02-23T10:44:00;4.20;;;1.10;;
15342;SDS011;7771;48.478;8.936;2024-02-23T10:46:26;4.90;;;1.27;;
15342;SDS011;7771;48.478;8.936;2024-02-23T10:48:55;6.93;;;1.80;;
15342;SDS011;7771;48.478;8.936;2024-02-23T10:51:22;2.43;;;1.50;;
15342;SDS011;7771;48.478;8.936;2024-02-23T10:53:48;8.40;;;1.70;;
15342;SDS011;7771;48.478;8.936;2024-02-23T10:56:15;4.37;;;1.50;;
15342;SDS011;7771;48.478;8.936;2024-02-23T10:58:42;3.97;;;1.67;;
15342;SDS011;7771;48.478;8.936;2024-02-23T11:01:09;6.13;;;3.17;;
15342;SDS011;7771;48.478;8.936;2024-02-23T11:03:36;3.70;;;2.70;;
15342;SDS011;7771;48.478;8.936;2024-02-23T11:06:02;2.57;;;1.67;;
15342;SDS011;7771;48.478;8.936;2024-02-23T11:08:32;6.97;;;1.27;;
15342;SDS011;7771;48.478;8.936;2024-02-23T11:11:06;5.50;;;1.43;;
15342;SDS011;7771;48.478;8.936;2024-02-23T11:13:30;4.07;;;1.23;;
15342;SDS011;7771;48.478;8.936;2024-02-23T11:16:01;5.53;;;1.50;;
15342;SDS011;7771;48.478;8.936;2024-02-23T11:18:28;7.93;;;3.53;;
15342;SDS011;7771;48.478;8.936;2024-02-23T11:20:55;4.30;;;3.70;;
15342;SDS011;7771;48.478;8.936;2024-02-23T11:23:22;7.03;;;2.80;;
15342;SDS011;7771;48.478;8.936;2024-02-23T11:26:09;8.87;;;3.67;;
15342;SDS011;7771;48.478;8.936;2024-02-23T11:31:12;6.60;;;4.10;;
15342;SDS011;7771;48.478;8.936;2024-02-23T11:33:38;7.67;;;5.13;;
15342;SDS011;7771;48.478;8.936;2024-02-23T11:36:06;7.57;;;2.43;;
15342;SDS011;7771;48.478;8.936;2024-02-23T11:38:33;10.53;;;6.80;;
15342;SDS011;7771;48.478;8.936;2024-02-23T11:43:47;11.10;;;4.40;;
15342;SDS011;7771;48.478;8.936;2024-02-23T11:46:16;5.30;;;1.83;;
15342;SDS011;7771;48.478;8.936;2024-02-23T11:48:43;7.03;;;2.77;;
15342;SDS011;7771;48.478;8.936;2024-02-23T11:51:09;3.17;;;1.40;;
15342;SDS011;7771;48.478;8.936;2024-02-23T11:53:36;7.80;;;1.80;;
15342;SDS011;7771;48.478;8.936;2024-02-23T11:56:04;4.73;;;1.43;;
15342;SDS011;7771;48.478;8.936;2024-02-23T11:58:32;4.93;;;2.10;;
15342;SDS011;7771;48.478;8.936;2024-02-23T12:00:59;14.60;;;3.97;;
15342;SDS011;7771;48.478;8.936;2024-02-23T12:03:27;10.87;;;2.93;;
15342;SDS011;7771;48.478;8.936;2024-02-23T12:05:54;6.07;;;2.30;;
15342;SDS011;7771;48.478;8.936;2024-02-23T12:08:21;4.57;;;2.60;;
15342;SDS011;7771;48.478;8.936;2024-02-23T12:10:49;4.20;;;1.63;;
15342;SDS011;7771;48.478;8.936;2024-02-23T12:13:15;8.77;;;3.07;;
15342;SDS011;7771;48.478;8.936;2024-02-23T12:15:42;8.90;;;2.97;;
15342;SDS011;7771;48.478;8.936;2024-02-23T12:18:10;5.33;;;1.57;;
15342;SDS011;7771;48.478;8.936;2024-02-23T12:20:37;7.10;;;2.27;;
15342;SDS011;7771;48.478;8.936;2024-02-23T12:23:04;13.80;;;5.50;;
15342;SDS011;7771;48.478;8.936;2024-02-23T12:25:31;12.43;;;4.03;;
15342;SDS011;7771;48.478;8.936;2024-02-23T12:28:00;11.60;;;4.50;;
15342;SDS011;7771;48.478;8.936;2024-02-23T12:30:28;14.27;;;5.60;;
15342;SDS011;7771;48.478;8.936;2024-02-23T12:35:29;3.87;;;2.23;;
15342;SDS011;7771;48.478;8.936;2024-02-23T12:37:56;4.57;;;1.60;;
15342;SDS011;7771;48.478;8.936;2024-02-23T12:40:24;3.87;;;1.43;;
15342;SDS011;7771;48.478;8.936;2024-02-23T12:42:52;5.27;;;1.70;;
15342;SDS011;7771;48.478;8.936;2024-02-23T12:45:18;9.43;;;1.67;;
15342;SDS011;7771;48.478;8.936;2024-02-23T12:47:45;5.20;;;1.70;;
15342;SDS011;7771;48.478;8.936;2024-02-23T12:50:12;4.27;;;1.60;;
15342;SDS011;7771;48.478;8.936;2024-02-23T12:52:40;3.67;;;1.30;;
15342;SDS011;7771;48.478;8.936;2024-02-23T12:55:06;6.07;;;1.60;;
15342;SDS011;7771;48.478;8.936;2024-02-23T12:57:34;6.10;;;2.10;;
15342;SDS011;7771;48.478;8.936;2024-02-23T13:00:01;6.13;;;1.40;;
15342;SDS011;7771;48.478;8.936;2024-02-23T13:02:29;5.87;;;1.80;;
15342;SDS011;7771;48.478;8.936;2024-02-23T13:04:55;7.30;;;1.90;;
15342;SDS011;7771;48.478;8.936;2024-02-23T13:07:22;4.93;;;2.43;;
15342;SDS011;7771;48.478;8.936;2024-02-23T13:09:49;5.37;;;1.73;;
15342;SDS011;7771;48.478;8.936;2024-02-23T13:12:17;4.83;;;1.60;;
15342;SDS011;7771;48.478;8.936;2024-02-23T13:14:44;5.47;;;1.77;;
15342;SDS011;7771;48.478;8.936;2024-02-23T13:17:11;3.93;;;1.70;;
15342;SDS011;7771;48.478;8.936;2024-02-23T13:19:37;5.53;;;1.33;;
15342;SDS011;7771;48.478;8.936;2024-02-23T13:22:05;3.83;;;1.40;;
15342;SDS011;7771;48.478;8.936;2024-02-23T13:24:31;3.87;;;1.47;;
15342;SDS011;7771;48.478;8.936;2024-02-23T13:26:59;7.30;;;1.77;;
15342;SDS011;7771;48.478;8.936;2024-02-23T13:29:25;8.83;;;1.60;;
15342;SDS011;7771;48.478;8.936;2024-02-23T13:31:52;6.93;;;1.37;;
15342;SDS011;7771;48.478;8.936;2024-02-23T13:34:19;7.27;;;1.80;;
15342;SDS011;7771;48.478;8.936;2024-02-23T13:36:46;3.17;;;1.23;;
15342;SDS011;7771;48.478;8.936;2024-02-23T13:39:13;6.10;;;1.70;;
15342;SDS011;7771;48.478;8.936;2024-02-23T13:41:41;5.50;;;1.63;;
15342;SDS011;7771;48.478;8.936;2024-02-23T13:44:08;5.80;;;1.90;;
15342;SDS011;7771;48.478;8.936;2024-02-23T13:46:37;6.87;;;3.20;;
15342;SDS011;7771;48.478;8.936;2024-02-23T13:49:05;9.93;;;3.60;;
15342;SDS011;7771;48.478;8.936;2024-02-23T13:51:32;19.53;;;6.87;;
15342;SDS011;7771;48.478;8.936;2024-02-23T13:53:58;12.70;;;4.70;;
15342;SDS011;7771;48.478;8.936;2024-02-23T13:56:25;9.40;;;4.13;;
15342;SDS011;7771;48.478;8.936;2024-02-23T13:58:51;11.17;;;5.03;;
15342;SDS011;7771;48.478;8.936;2024-02-23T14:01:18;8.90;;;3.27;;
15342;SDS011;7771;48.478;8.936;2024-02-23T14:03:45;8.70;;;3.73;;
15342;SDS011;7771;48.478;8.936;2024-02-23T14:06:13;8.13;;;3.40;;
15342;SDS011;7771;48.478;8.936;2024-02-23T14:08:40;5.67;;;2.97;;
15342;SDS011;7771;48.478;8.936;2024-02-23T14:11:07;4.77;;;2.00;;
15342;SDS011;7771;48.478;8.936;2024-02-23T14:13:34;4.90;;;2.50;;
15342;SDS011;7771;48.478;8.936;2024-02-23T14:16:00;9.10;;;3.63;;
15342;SDS011;7771;48.478;8.936;2024-02-23T14:18:28;10.70;;;3.80;;
15342;SDS011;7771;48.478;8.936;2024-02-23T14:20:55;8.27;;;3.00;;
15342;SDS011;7771;48.478;8.936;2024-02-23T14:23:22;5.70;;;1.93;;
15342;SDS011;7771;48.478;8.936;2024-02-23T14:25:49;4.47;;;2.10;;
15342;SDS011;7771;48.478;8.936;2024-02-23T14:28:17;6.50;;;2.47;;
15342;SDS011;7771;48.478;8.936;2024-02-23T14:30:44;3.60;;;1.77;;
15342;SDS011;7771;48.478;8.936;2024-02-23T14:33:11;3.87;;;1.87;;
15342;SDS011;7771;48.478;8.936;2024-02-23T14:35:39;3.90;;;1.63;;
15342;SDS011;7771;48.478;8.936;2024-02-23T14:38:05;3.30;;;1.10;;
15342;SDS011;7771;48.478;8.936;2024-02-23T14:40:33;5.73;;;1.50;;
15342;SDS011;7771;48.478;8.936;2024-02-23T14:43:01;7.60;;;1.40;;
15342;SDS011;7771;48.478;8.936;2024-02-23T14:45:27;3.80;;;1.30;;
15342;SDS011;7771;48.478;8.936;2024-02-23T14:47:54;4.10;;;1.60;;
15342;SDS011;7771;48.478;8.936;2024-02-23T14:50:22;4.57;;;1.43;;
15342;SDS011;7771;48.478;8.936;2024-02-23T14:52:49;3.77;;;1.60;;
15342;SDS011;7771;48.478;8.936;2024-02-23T14:55:15;7.13;;;1.70;;
15342;SDS011;7771;48.478;8.936;2024-02-23T14:57:43;4.90;;;1.90;;
15342;SDS011;7771;48.478;8.936;2024-02-23T15:00:10;4.80;;;1.93;;
15342;SDS011;7771;48.478;8.936;2024-02-23T15:02:38;4.23;;;1.53;;
15342;SDS011;7771;48.478;8.936;2024-02-23T15:05:04;2.90;;;0.90;;
15342;SDS011;7771;48.478;8.936;2024-02-23T15:07:32;2.47;;;1.23;;
15342;SDS011;7771;48.478;8.936;2024-02-23T15:09:58;2.63;;;1.30;;
15342;SDS011;7771;48.478;8.936;2024-02-23T15:12:25;3.60;;;1.63;;